Time;durP1;ratioP1;P1;durP2;ratioP2;P2;SDS_P1;SDS_P2;PMS_P1;PMS_P2;Temp;Humidity;BMP_temperature;BMP_pressure;BME280_temperature;BME280_humidity;BME280_pressure;Samples;Min_cycle;Max_cycle;Signal;HPM_P1;HPM_P2
2022/10/24 00:01:15;;;;;;;22.10;8.35;;;;;;;10.15;71.10;100758.34;5107857;28;20058;-27
2022/10/24 00:03:41;;;;;;;34.85;11.38;;;;;;;10.13;70.75;100773.72;5107794;28;20047;-29
2022/10/24 00:06:08;;;;;;;25.35;8.30;;;;;;;10.05;70.38;100756.03;5107429;28;20046;-26
2022/10/24 00:08:35;;;;;;;15.57;5.90;;;;;;;10.27;69.93;100767.41;5107332;28;20051;-26
2022/10/24 00:11:00;;;;;;;12.43;5.10;;;;;;;10.69;68.81;100767.38;5107734;28;20088;-27
2022/10/24 00:13:26;;;;;;;8.32;4.55;;;;;;;10.59;68.43;100747.22;5107518;28;20057;-27
2022/10/24 00:15:51;;;;;;;8.45;4.85;;;;;;;10.71;67.30;100743.97;5107899;28;20415;-27
2022/10/24 00:18:16;;;;;;;9.07;4.85;;;;;;;10.67;68.50;100758.75;5107568;28;20036;-26
2022/10/24 00:20:42;;;;;;;14.63;6.07;;;;;;;10.19;69.87;100759.59;5107694;28;20031;-25
2022/10/24 00:23:08;;;;;;;13.57;6.60;;;;;;;10.11;70.05;100759.75;5089069;28;20023;-26
2022/10/24 00:25:34;;;;;;;12.25;5.70;;;;;;;10.20;70.04;100731.94;5107360;28;20404;-28
2022/10/24 00:27:59;;;;;;;10.80;6.25;;;;;;;10.71;68.54;100755.47;5089031;28;20051;-27
2022/10/24 00:30:25;;;;;;;11.27;6.05;;;;;;;10.57;69.46;100759.13;5107311;28;20032;-26
2022/10/24 00:32:51;;;;;;;9.70;6.20;;;;;;;10.24;69.71;100733.97;5107900;28;20036;-26
2022/10/24 00:35:17;;;;;;;11.93;5.85;;;;;;;10.37;69.92;100751.06;5107369;28;20038;-25
2022/10/24 00:37:43;;;;;;;11.77;5.85;;;;;;;10.47;69.36;100758.69;5107410;28;20034;-26
2022/10/24 00:40:13;;;;;;;12.95;6.05;;;;;;;10.71;68.35;100755.47;5088869;28;20028;-25
2022/10/24 00:42:38;;;;;;;13.23;6.53;;;;;;;10.69;68.17;100767.38;5107314;28;20096;-30
2022/10/24 00:45:44;;;;;;;10.85;5.97;;;;;;;10.70;68.19;100763.66;5111144;28;20486;-28
2022/10/24 00:48:13;;;;;;;11.32;5.95;;;;;;;10.29;69.30;100738.72;5110989;28;20589;-27
2022/10/24 00:50:39;;;;;;;13.60;6.95;;;;;;;10.32;69.72;100762.34;5111100;28;20035;-25
2022/10/24 00:53:05;;;;;;;10.57;6.15;;;;;;;10.45;68.84;100742.91;5111377;28;20426;-27
2022/10/24 00:55:30;;;;;;;12.70;5.80;;;;;;;10.51;68.44;100759.94;5111355;28;20483;-25
2022/10/24 00:58:00;;;;;;;9.90;5.80;;;;;;;10.65;67.51;100762.44;5111515;28;20031;-27
2022/10/24 01:00:29;;;;;;;12.77;6.75;;;;;;;10.80;66.47;100764.09;5111025;28;20035;-26
2022/10/24 01:02:55;;;;;;;13.52;6.07;;;;;;;10.67;65.88;100743.56;5111291;28;20074;-26
2022/10/24 01:05:22;;;;;;;11.82;5.97;;;;;;;10.55;67.04;100755.84;5111284;28;20704;-26
2022/10/24 01:07:51;;;;;;;13.82;7.13;;;;;;;10.39;67.78;100762.34;5111380;28;20034;-26
2022/10/24 01:10:16;;;;;;;;;;;;;;;10.57;66.88;100761.81;5111430;28;20039;-27
2022/10/24 01:13:07;;;;;;;33.10;12.88;;;;;;;10.66;66.21;100765.91;5111117;28;19927;-26
2022/10/24 01:15:50;;;;;;;32.78;13.05;;;;;;;10.18;68.29;100740.13;5104880;28;20143;-27
2022/10/24 01:18:35;;;;;;;30.10;10.80;;;;;;;10.47;67.94;100753.38;5110948;28;20487;-29
2022/10/24 01:21:03;;;;;;;21.65;9.15;;;;;;;9.61;69.92;100749.28;5110920;28;20031;-27
2022/10/24 01:23:53;;;;;;;24.55;9.75;;;;;;;10.06;69.22;100763.03;5110921;28;20024;-26
2022/10/24 01:26:43;;;;;;;19.45;8.73;;;;;;;9.49;70.39;100767.63;5110131;28;20032;-26
2022/10/24 01:29:16;;;;;;;15.25;8.25;;;;;;;9.50;70.24;100763.97;5110807;28;20028;-25
2022/10/24 01:31:44;;;;;;;20.13;8.13;;;;;;;9.63;69.85;100766.69;5110938;28;20038;-27
2022/10/24 01:34:19;;;;;;;18.65;8.10;;;;;;;9.73;69.79;100757.53;5110376;28;20031;-26
2022/10/24 01:37:02;;;;;;;14.40;6.05;;;;;;;9.86;69.53;100746.94;5092184;28;20787;-25
2022/10/24 01:39:33;;;;;;;13.10;6.80;;;;;;;10.05;68.81;100754.22;5110702;28;20143;-26
2022/10/24 01:42:01;;;;;;;14.25;6.85;;;;;;;10.00;68.98;100751.31;5092107;28;20027;-27
2022/10/24 01:44:32;;;;;;;15.70;7.57;;;;;;;9.87;69.91;100761.91;5110197;28;20076;-26
2022/10/24 01:47:04;;;;;;;11.68;6.75;;;;;;;10.04;68.93;100762.41;5110231;28;20027;-26
2022/10/24 01:49:39;;;;;;;13.45;6.60;;;;;;;10.04;69.20;100755.22;5110641;28;20034;-26
2022/10/24 01:52:09;;;;;;;16.60;7.32;;;;;;;10.01;69.42;100729.00;5110417;28;20032;-27
2022/10/24 01:54:37;;;;;;;15.85;8.43;;;;;;;9.76;70.51;100749.94;5110172;28;20482;-26
2022/10/24 01:57:04;;;;;;;16.23;8.85;;;;;;;10.06;70.04;100741.72;5110070;28;20036;-26
2022/10/24 01:59:29;;;;;;;16.60;8.60;;;;;;;10.10;69.19;100752.81;5091226;28;20020;-27
2022/10/24 02:02:01;;;;;;;15.48;8.05;;;;;;;10.04;69.84;100755.22;5109746;28;20046;-26
2022/10/24 02:04:31;;;;;;;15.65;8.50;;;;;;;10.27;68.87;100749.56;5109561;28;20144;-28
2022/10/24 02:07:01;;;;;;;17.50;8.13;;;;;;;10.18;68.46;100731.31;5110280;28;20035;-27
2022/10/24 02:09:27;;;;;;;16.73;8.77;;;;;;;10.22;68.72;100745.88;5109916;28;20027;-28
2022/10/24 02:11:55;;;;;;;16.05;8.82;;;;;;;10.06;68.90;100725.72;5110280;28;20054;-25
2022/10/24 02:14:32;;;;;;;;;;;;;;;10.22;69.38;100756.53;5109830;28;20027;-27
2022/10/24 02:16:59;;;;;;;18.70;8.68;;;;;;;10.08;68.07;100733.53;5109964;28;19915;-27
2022/10/24 02:19:25;;;;;;;19.42;9.98;;;;;;;10.23;68.47;100758.16;5091348;28;20074;-26
2022/10/24 02:22:15;;;;;;;17.55;9.15;;;;;;;10.24;69.20;100763.31;5109658;28;20558;-28
2022/10/24 02:24:53;;;;;;;18.13;9.13;;;;;;;9.83;70.73;100744.69;5090860;28;20031;-26
2022/10/24 02:27:51;;;;;;;19.70;8.80;;;;;;;10.02;70.17;100765.25;5110236;28;20028;-27
2022/10/24 02:30:21;;;;;;;21.90;9.45;;;;;;;10.03;70.14;100763.41;5081176;28;20035;-27
2022/10/24 02:32:54;;;;;;;17.02;9.20;;;;;;;10.01;70.09;100742.31;5091020;28;20035;-27
2022/10/24 02:35:25;;;;;;;21.38;9.68;;;;;;;10.06;70.18;100753.19;5109522;28;20507;-31
2022/10/24 02:37:57;;;;;;;22.40;9.52;;;;;;;10.15;69.93;100750.34;5109796;28;20538;-29
2022/10/24 02:40:23;;;;;;;25.48;11.60;;;;;;;9.99;70.03;100744.34;5090709;28;20414;-26
2022/10/24 02:42:53;;;;;;;37.13;14.90;;;;;;;9.95;70.57;100759.09;5091032;28;20671;-27
2022/10/24 02:45:19;;;;;;;36.53;15.90;;;;;;;9.81;71.32;100758.19;5109231;28;20032;-26
2022/10/24 02:47:47;;;;;;;31.67;14.63;;;;;;;9.80;71.33;100761.03;5109957;28;20024;-25
2022/10/24 02:50:13;;;;;;;33.22;14.50;;;;;;;9.85;70.19;100740.81;5109335;28;20106;-27
2022/10/24 02:52:40;;;;;;;30.17;13.15;;;;;;;9.80;70.83;100761.03;5109178;28;20114;-28
2022/10/24 02:55:06;;;;;;;29.30;13.40;;;;;;;9.57;72.17;100759.47;5108957;28;20039;-29
2022/10/24 02:57:31;;;;;;;38.72;14.93;;;;;;;9.64;71.66;100767.50;5109128;28;20024;-28
2022/10/24 02:59:57;;;;;;;41.22;16.15;;;;;;;9.71;71.29;100754.25;5090707;28;20057;-26
2022/10/24 03:02:22;;;;;;;26.85;11.45;;;;;;;9.57;71.07;100754.16;5108950;28;20032;-28
2022/10/24 03:04:48;;;;;;;39.08;13.35;;;;;;;9.44;71.93;100760.22;5109237;28;20066;-25
2022/10/24 03:07:14;;;;;;;33.83;14.63;;;;;;;9.65;70.42;100755.84;5108121;28;20023;-26
2022/10/24 03:09:39;;;;;;;39.25;13.48;;;;;;;9.90;69.94;100766.84;5090502;28;20067;-26
2022/10/24 03:12:05;;;;;;;27.67;11.63;;;;;;;9.76;70.23;100767.78;5108878;28;20020;-26
2022/10/24 03:14:30;;;;;;;29.95;11.73;;;;;;;9.43;71.68;100768.41;5108561;28;20027;-27
2022/10/24 03:16:56;;;;;;;26.73;9.25;;;;;;;9.50;70.98;100753.31;5108727;28;20099;-28
2022/10/24 03:19:22;;;;;;;22.58;11.15;;;;;;;9.16;72.83;100768.19;5108826;28;20135;-25
2022/10/24 03:21:47;;;;;;;21.63;9.93;;;;;;;9.00;73.20;100765.81;5108591;28;20023;-27
2022/10/24 03:24:13;;;;;;;21.38;9.85;;;;;;;8.93;73.64;100763.09;5108640;28;20449;-27
2022/10/24 03:26:38;;;;;;;22.33;8.75;;;;;;;9.23;71.97;100745.13;5108233;28;20020;-26
2022/10/24 03:29:04;;;;;;;22.25;9.20;;;;;;;9.31;71.38;100769.94;5108043;28;20156;-31
2022/10/24 03:31:30;;;;;;;16.88;8.02;;;;;;;9.31;71.18;100772.59;5108327;28;20115;-27
2022/10/24 03:33:56;;;;;;;21.75;8.27;;;;;;;9.37;70.97;100777.16;5108549;28;20038;-29
2022/10/24 03:36:22;;;;;;;14.90;8.05;;;;;;;9.25;71.38;100780.34;5089639;28;20399;-27
2022/10/24 03:38:47;;;;;;;16.00;8.40;;;;;;;9.03;72.56;100778.72;5108200;28;20558;-28
2022/10/24 03:41:12;;;;;;;23.25;10.00;;;;;;;8.36;73.02;100767.38;5089800;28;20096;-27
2022/10/24 03:43:38;;;;;;;20.75;8.85;;;;;;;8.03;75.14;100778.44;5108091;28;20458;-27
2022/10/24 03:46:03;;;;;;;21.60;9.52;;;;;;;8.23;74.69;100777.84;5108227;28;20038;-30
2022/10/24 03:48:29;;;;;;;23.05;10.32;;;;;;;8.38;73.57;100754.72;5107850;28;20027;-30
2022/10/24 03:50:54;;;;;;;25.20;11.02;;;;;;;8.67;73.07;100779.59;5108285;28;20604;-26
2022/10/24 03:53:19;;;;;;;24.65;11.18;;;;;;;8.17;74.48;100776.78;5108020;28;20103;-27
2022/10/24 03:55:45;;;;;;;25.17;10.57;;;;;;;7.99;75.68;100769.19;5107835;28;20034;-27
2022/10/24 03:58:10;;;;;;;26.02;10.88;;;;;;;7.82;76.17;100765.06;5107873;28;20036;-28
2022/10/24 04:00:39;;;;;;;20.83;11.07;;;;;;;7.92;76.35;100765.59;5107527;28;20038;-26
2022/10/24 04:03:05;;;;;;;;;;;;;;;8.01;75.90;100779.63;5108350;28;20032;-26
2022/10/24 04:05:30;;;;;;;22.60;9.63;;;;;;;8.36;74.24;100762.06;5107619;28;20156;-27
2022/10/24 04:07:56;;;;;;;24.63;10.48;;;;;;;8.64;72.96;100743.59;5107781;28;20028;-25
2022/10/24 04:10:21;;;;;;;22.60;10.10;;;;;;;8.13;74.92;100761.38;5107365;28;20031;-28
2022/10/24 04:12:47;;;;;;;20.58;9.70;;;;;;;7.89;75.85;100739.44;5107572;28;20414;-27
2022/10/24 04:15:12;;;;;;;25.25;9.77;;;;;;;8.11;75.62;100744.78;5107739;28;20032;-31
2022/10/24 04:17:38;;;;;;;33.83;10.40;;;;;;;8.15;74.83;100740.75;5107186;28;20487;-27
2022/10/24 04:20:04;;;;;;;23.27;9.60;;;;;;;8.51;74.01;100755.91;5107138;28;20510;-26
2022/10/24 04:22:29;;;;;;;21.30;8.52;;;;;;;8.07;73.23;100757.66;5107164;28;20032;-27
2022/10/24 04:24:55;;;;;;;23.23;8.40;;;;;;;7.78;72.71;100763.78;5107358;28;20405;-26
2022/10/24 04:27:20;;;;;;;21.30;8.57;;;;;;;7.55;72.57;100746.09;5107370;28;20077;-27
2022/10/24 04:29:45;;;;;;;18.13;7.50;;;;;;;7.61;73.27;100753.34;5107481;28;20027;-26
2022/10/24 04:32:11;;;;;;;23.27;9.93;;;;;;;7.90;72.88;100746.38;5089028;28;20107;-25
2022/10/24 04:34:36;;;;;;;29.90;10.65;;;;;;;8.14;73.41;100747.09;5088764;28;20510;-29
2022/10/24 04:37:02;;;;;;;27.55;9.32;;;;;;;8.27;73.24;100741.09;5107587;28;20032;-26
2022/10/24 04:39:27;;;;;;;38.85;9.52;;;;;;;7.86;74.28;100747.75;5107275;28;20028;-28
2022/10/24 04:41:53;;;;;;;17.08;7.95;;;;;;;7.55;75.89;100742.63;5107467;28;20026;-27
2022/10/24 04:44:18;;;;;;;19.73;7.28;;;;;;;7.33;74.26;100752.31;5088547;28;20035;-28
2022/10/24 04:46:44;;;;;;;13.13;6.57;;;;;;;7.04;75.02;100756.53;5107726;28;20457;-26
2022/10/24 04:49:09;;;;;;;15.35;6.38;;;;;;;7.16;73.78;100759.59;5089092;28;20034;-26
2022/10/24 04:51:35;;;;;;;13.93;6.28;;;;;;;7.51;73.12;100767.88;5107300;28;20027;-27
2022/10/24 04:54:00;;;;;;;16.35;6.80;;;;;;;7.86;72.99;100761.03;5107484;28;20062;-29
2022/10/24 04:56:26;;;;;;;18.80;8.35;;;;;;;8.11;73.43;100742.13;5106894;28;20049;-27
2022/10/24 04:58:52;;;;;;;17.05;7.22;;;;;;;8.17;73.52;100763.50;5107052;28;20058;-28
2022/10/24 05:01:17;;;;;;;17.52;7.68;;;;;;;8.37;73.88;100769.00;5107209;28;20047;-30
2022/10/24 05:03:42;;;;;;;13.00;6.53;;;;;;;8.50;73.89;100767.53;5107237;28;20038;-27
2022/10/24 05:06:08;;;;;;;16.52;7.30;;;;;;;8.55;74.33;100762.50;5106871;28;20043;-26
2022/10/24 05:08:35;;;;;;;12.38;6.80;;;;;;;8.25;75.54;100771.34;5106840;28;20023;-26
2022/10/24 05:11:00;;;;;;;14.25;7.00;;;;;;;8.09;77.14;100768.06;5107330;28;20070;-28
2022/10/24 05:13:26;;;;;;;14.45;6.63;;;;;;;8.26;76.73;100772.16;5106468;28;20051;-28
2022/10/24 05:15:51;;;;;;;13.57;5.68;;;;;;;7.88;76.41;100750.22;5107120;28;20023;-27
2022/10/24 05:18:16;;;;;;;16.15;7.38;;;;;;;7.78;75.91;100761.94;5106829;28;20023;-26
2022/10/24 05:20:42;;;;;;;13.45;6.28;;;;;;;7.83;75.57;100762.22;5106935;28;20067;-27
2022/10/24 05:23:08;;;;;;;13.48;6.68;;;;;;;8.02;75.96;100758.19;5106913;28;20107;-26
2022/10/24 05:25:33;;;;;;;17.77;7.22;;;;;;;8.25;75.86;100786.44;5107055;28;20540;-27
2022/10/24 05:27:59;;;;;;;22.48;7.72;;;;;;;8.21;76.26;100769.22;5106772;28;20028;-26
2022/10/24 05:30:24;;;;;;;19.23;7.93;;;;;;;8.15;76.75;100760.19;5109271;28;20116;-27
2022/10/24 05:32:50;;;;;;;21.77;9.32;;;;;;;8.32;76.73;100798.00;5110875;28;20088;-24
2022/10/24 05:35:16;;;;;;;24.58;9.27;;;;;;;8.41;76.52;100780.13;5110743;28;20114;-27
2022/10/24 05:37:42;;;;;;;24.77;11.88;;;;;;;8.59;74.90;100783.19;5110667;28;20081;-28
2022/10/24 05:40:12;;;;;;;23.50;9.93;;;;;;;8.81;73.61;100786.72;5091906;28;20020;-26
2022/10/24 05:42:38;;;;;;;19.30;8.63;;;;;;;9.02;72.83;100803.69;5110180;28;20028;-26
2022/10/24 05:45:05;;;;;;;18.98;9.30;;;;;;;9.31;71.77;100780.59;5110375;28;20059;-28
2022/10/24 05:47:31;;;;;;;205.23;22.38;;;;;;;9.37;71.30;100787.81;5092476;28;20415;-29
2022/10/24 05:49:56;;;;;;;41.15;9.30;;;;;;;9.83;70.43;100811.28;5110229;28;20513;-26
2022/10/24 05:52:21;;;;;;;13.23;7.15;;;;;;;9.65;71.09;100793.13;5110001;28;20034;-26
2022/10/24 05:54:47;;;;;;;12.75;6.47;;;;;;;9.94;70.37;100808.06;5110092;28;20032;-26
2022/10/24 05:57:12;;;;;;;17.88;7.25;;;;;;;9.95;71.33;100820.38;5109752;28;20135;-30
2022/10/24 05:59:38;;;;;;;17.77;8.75;;;;;;;9.87;71.63;100815.19;5110295;28;20024;-26
2022/10/24 06:02:03;;;;;;;20.00;9.55;;;;;;;10.17;70.71;100812.28;5110082;28;20123;-28
2022/10/24 06:04:28;;;;;;;21.90;10.35;;;;;;;10.22;71.01;100815.19;5109761;28;20479;-27
2022/10/24 06:06:54;;;;;;;15.68;8.25;;;;;;;10.29;70.96;100816.03;5110115;28;20099;-29
2022/10/24 06:09:19;;;;;;;18.30;9.07;;;;;;;10.45;70.58;100823.69;5110256;28;20036;-26
2022/10/24 06:11:45;;;;;;;26.95;9.80;;;;;;;10.53;71.23;100824.56;5109929;28;20028;-27
2022/10/24 06:14:11;;;;;;;18.58;9.15;;;;;;;10.74;69.89;100818.25;5091359;28;20055;-29
2022/10/24 06:16:36;;;;;;;17.63;8.50;;;;;;;10.56;68.88;100814.34;5109527;28;20031;-31
2022/10/24 06:19:02;;;;;;;18.23;8.18;;;;;;;10.67;69.66;100823.59;5109650;28;20023;-25
2022/10/24 06:21:28;;;;;;;13.90;7.47;;;;;;;10.71;69.63;100824.81;5109717;28;20117;-26
2022/10/24 06:23:53;;;;;;;25.95;9.38;;;;;;;10.88;68.79;100819.13;5109413;28;20092;-27
2022/10/24 06:26:18;;;;;;;17.45;7.70;;;;;;;10.86;69.10;100817.47;5109159;28;20032;-25
2022/10/24 06:28:44;;;;;;;11.18;6.47;;;;;;;11.04;68.23;100822.22;5109729;28;20034;-27
2022/10/24 06:31:11;;;;;;;13.65;6.40;;;;;;;11.18;68.07;100831.06;5109787;28;20027;-27
2022/10/24 06:33:37;;;;;;;10.68;5.47;;;;;;;11.06;68.36;100811.34;5109934;28;20543;-27
2022/10/24 06:36:05;;;;;;;11.68;6.32;;;;;;;11.27;68.91;100829.84;5109187;28;20134;-26
2022/10/24 06:38:31;;;;;;;12.32;6.90;;;;;;;11.27;68.63;100816.47;5109326;28;20043;-28
2022/10/24 06:40:57;;;;;;;12.20;6.57;;;;;;;11.45;68.73;100837.25;5108558;28;20035;-25
2022/10/24 06:43:23;;;;;;;12.23;7.10;;;;;;;11.71;67.68;100827.56;5109539;28;20036;-26
2022/10/24 06:45:48;;;;;;;11.40;7.35;;;;;;;11.79;68.18;100816.66;5090905;28;20407;-28
2022/10/24 06:48:14;;;;;;;14.00;6.40;;;;;;;12.18;68.08;100831.00;5109455;28;20027;-27
2022/10/24 06:50:39;;;;;;;11.00;6.32;;;;;;;12.56;66.69;100834.75;5090568;28;20024;-28
2022/10/24 06:53:08;;;;;;;11.32;6.13;;;;;;;12.60;65.71;100801.19;5109166;28;20512;-27
2022/10/24 06:55:36;;;;;;;8.88;5.30;;;;;;;13.05;64.08;100819.84;5108871;28;20028;-27
2022/10/24 06:58:03;;;;;;;12.52;5.65;;;;;;;13.20;63.95;100827.59;5109125;28;20060;-27
2022/10/24 07:00:29;;;;;;;8.07;5.10;;;;;;;13.35;63.05;100836.16;5108969;28;20423;-26
2022/10/24 07:02:54;;;;;;;11.23;5.88;;;;;;;13.58;62.79;100819.47;5108876;28;20031;-27
2022/10/24 07:05:20;;;;;;;13.50;6.15;;;;;;;14.00;61.60;100832.25;5109227;28;20589;-25
2022/10/24 07:07:45;;;;;;;14.82;6.20;;;;;;;14.04;61.45;100807.47;5108749;28;20031;-27
2022/10/24 07:10:12;;;;;;;11.82;5.53;;;;;;;14.12;60.40;100814.38;5090128;28;20036;-27
2022/10/24 07:12:37;;;;;;;8.65;5.75;;;;;;;14.43;59.78;100826.81;5090191;28;20023;-25
2022/10/24 07:15:03;;;;;;;9.52;5.50;;;;;;;14.45;58.80;100797.06;5108740;28;20410;-29
2022/10/24 07:17:29;;;;;;;10.25;5.50;;;;;;;14.60;59.10;100805.56;5108630;28;20031;-28
2022/10/24 07:19:55;;;;;;;11.30;5.57;;;;;;;14.82;58.48;100815.78;5108900;28;20462;-28
2022/10/24 07:22:21;;;;;;;8.52;4.90;;;;;;;14.76;58.66;100804.09;5108190;28;20079;-26
2022/10/24 07:24:52;;;;;;;14.32;5.78;;;;;;;15.12;57.88;100822.97;5108159;28;20035;-27
2022/10/24 07:27:17;;;;;;;9.57;4.68;;;;;;;15.48;56.28;100816.63;5108736;28;20105;-26
2022/10/24 07:29:43;;;;;;;9.82;5.10;;;;;;;15.38;57.40;100795.69;5108504;28;20471;-28
2022/10/24 07:32:09;;;;;;;10.45;5.63;;;;;;;15.67;57.20;100812.78;5108433;28;20468;-27
2022/10/24 07:34:35;;;;;;;7.45;4.70;;;;;;;15.69;56.26;100812.53;5107978;28;20134;-27
2022/10/24 07:37:02;;;;;;;9.82;5.57;;;;;;;15.85;56.18;100822.63;5108503;28;20574;-31
2022/10/24 07:39:28;;;;;;;11.45;5.35;;;;;;;15.97;55.75;100827.97;5108363;28;20060;-28
2022/10/24 07:41:53;;;;;;;9.32;5.13;;;;;;;15.95;55.80;100822.00;5108272;28;20066;-31
2022/10/24 07:44:19;;;;;;;9.77;4.78;;;;;;;16.19;55.09;100806.66;5089485;28;20037;-28
2022/10/24 07:46:44;;;;;;;9.40;5.07;;;;;;;16.22;54.99;100824.19;5108089;28;20474;-27
2022/10/24 07:49:10;;;;;;;9.00;4.97;;;;;;;16.39;54.32;100811.63;5108035;28;20020;-27
2022/10/24 07:51:35;;;;;;;11.88;5.70;;;;;;;16.38;53.95;100812.66;5107879;28;20023;-28
2022/10/24 07:54:00;;;;;;;8.98;5.68;;;;;;;16.37;54.15;100824.50;5107882;28;20055;-26
2022/10/24 07:56:26;;;;;;;9.75;5.38;;;;;;;16.55;54.58;100803.81;5107718;28;20071;-26
2022/10/24 07:58:51;;;;;;;9.52;4.85;;;;;;;16.54;54.14;100812.97;5107967;28;20109;-26
2022/10/24 08:01:22;;;;;;;20.77;6.63;;;;;;;16.98;54.35;100818.66;5107726;28;20035;-27
2022/10/24 08:03:48;;;;;;;16.13;7.82;;;;;;;17.11;53.09;100818.34;5107742;28;20032;-26
2022/10/24 08:06:17;;;;;;;18.50;7.00;;;;;;;17.22;52.22;100812.06;5089159;28;20020;-26
2022/10/24 08:08:43;;;;;;;13.50;7.50;;;;;;;17.34;51.01;100806.59;5107853;28;20452;-29
2022/10/24 08:11:12;;;;;;;10.55;6.13;;;;;;;17.68;50.92;100815.47;5107934;28;20047;-26
2022/10/24 08:13:38;;;;;;;10.55;6.00;;;;;;;17.94;51.37;100793.44;5107631;28;20031;-27
2022/10/24 08:16:05;;;;;;;10.43;5.63;;;;;;;18.27;49.89;100806.00;5089133;28;20502;-30
2022/10/24 08:18:31;;;;;;;7.85;4.53;;;;;;;18.14;49.66;100787.47;5107224;28;20127;-27
2022/10/24 08:21:01;;;;;;;8.98;4.25;;;;;;;18.44;50.15;100798.63;5107712;28;20100;-27
2022/10/24 08:23:27;;;;;;;8.35;4.20;;;;;;;18.52;49.18;100820.88;5107853;28;20046;-26
2022/10/24 08:25:53;;;;;;;16.80;6.32;;;;;;;18.50;48.65;100801.41;5107768;28;20035;-27
2022/10/24 08:28:19;;;;;;;18.17;6.53;;;;;;;18.84;48.86;100818.28;5107632;28;20036;-29
2022/10/24 08:30:54;;;;;;;9.23;4.50;;;;;;;19.12;48.95;100806.34;5107681;28;20039;-27
2022/10/24 08:33:19;;;;;;;9.50;4.43;;;;;;;19.06;47.62;100781.19;5088796;28;20081;-29
2022/10/24 08:35:45;;;;;;;7.80;3.67;;;;;;;19.24;47.29;100796.16;5107573;28;20027;-27
2022/10/24 08:38:11;;;;;;;6.32;3.67;;;;;;;19.23;46.45;100789.13;5089040;28;20035;-28
2022/10/24 08:40:36;;;;;;;9.80;5.03;;;;;;;19.16;47.85;100804.75;5088681;28;20495;-28
2022/10/24 08:43:02;;;;;;;7.82;3.58;;;;;;;19.19;47.33;100803.44;5089221;28;20035;-28
2022/10/24 08:45:57;;;;;;;7.38;3.83;;;;;;;19.57;48.08;100794.22;5088799;28;20058;-25
2022/10/24 08:48:29;;;;;;;5.10;3.47;;;;;;;19.46;46.86;100771.72;5097930;28;20570;-27
2022/10/24 08:51:06;;;;;;;6.93;2.88;;;;;;;19.90;46.30;100786.88;5088803;28;20059;-27
2022/10/24 08:53:32;;;;;;;6.87;3.70;;;;;;;19.80;45.74;100770.59;5107255;28;20028;-26
2022/10/24 08:55:59;;;;;;;7.38;2.88;;;;;;;20.17;44.23;100780.50;5088793;28;20032;-27
2022/10/24 08:58:33;;;;;;;8.93;3.30;;;;;;;20.00;44.18;100770.69;5106829;28;20023;-27
2022/10/24 09:01:01;;;;;;;6.20;3.30;;;;;;;20.28;43.18;100772.13;5107444;28;20040;-27
2022/10/24 09:03:38;;;;;;;5.60;3.05;;;;;;;20.47;42.95;100772.47;5107322;28;20030;-26
2022/10/24 09:06:15;;;;;;;8.48;3.00;;;;;;;20.52;43.43;100776.28;5110649;28;20726;-29
2022/10/24 09:08:50;;;;;;;7.30;3.40;;;;;;;20.81;42.92;100785.53;5110954;28;20777;-30
2022/10/24 09:11:35;;;;;;;7.50;3.08;;;;;;;21.05;41.46;100776.88;5111246;28;20030;-28
2022/10/24 09:14:05;;;;;;;9.32;3.05;;;;;;;21.22;41.19;100780.13;5091633;28;20035;-28
2022/10/24 09:16:31;;;;;;;4.97;2.88;;;;;;;21.30;40.67;100770.63;5111025;28;20035;-28
2022/10/24 09:18:57;;;;;;;5.97;2.70;;;;;;;21.43;40.63;100753.00;5110979;28;20027;-30
2022/10/24 09:21:23;;;;;;;4.43;2.65;;;;;;;21.58;40.89;100765.72;5092273;28;20027;-27
2022/10/24 09:23:49;;;;;;;5.07;2.70;;;;;;;21.60;39.12;100755.41;5110914;28;20043;-30
2022/10/24 09:26:26;;;;;;;4.05;2.58;;;;;;;21.87;39.74;100757.75;5110594;28;20030;-28
2022/10/24 09:28:53;;;;;;;4.88;2.78;;;;;;;21.91;39.65;100745.25;5110732;28;20023;-29
2022/10/24 09:31:23;;;;;;;6.25;2.95;;;;;;;21.93;38.60;100745.78;5110834;28;20173;-26
2022/10/24 09:33:51;;;;;;;5.38;2.42;;;;;;;21.82;38.44;100738.75;5110290;28;20035;-27
2022/10/24 09:36:19;;;;;;;5.38;3.00;;;;;;;22.41;39.67;100757.00;5110398;28;20038;-27
2022/10/24 09:38:45;;;;;;;5.10;2.80;;;;;;;22.23;38.77;100744.88;5111077;28;20042;-26
2022/10/24 09:41:23;;;;;;;9.45;3.55;;;;;;;22.28;38.64;100727.72;5110753;28;20035;-27
2022/10/24 09:43:55;;;;;;;6.20;3.22;;;;;;;22.52;38.85;100740.63;5110657;28;20030;-32
2022/10/24 09:46:40;;;;;;;5.40;2.90;;;;;;;22.89;37.46;100729.19;5110132;28;20067;-27
2022/10/24 09:49:12;;;;;;;8.13;3.92;;;;;;;22.64;37.83;100722.03;5110503;28;20020;-26
2022/10/24 09:51:41;;;;;;;5.55;2.70;;;;;;;22.77;37.82;100721.38;5110605;28;20523;-27
2022/10/24 09:54:19;;;;;;;6.15;2.97;;;;;;;23.04;36.91;100704.56;5091713;28;20122;-28
2022/10/24 09:57:07;;;;;;;5.38;2.90;;;;;;;23.35;36.82;100708.91;5110066;28;20027;-28
2022/10/24 09:59:37;;;;;;;5.75;3.17;;;;;;;23.43;36.44;100700.91;5092546;28;20047;-27
2022/10/24 10:02:09;;;;;;;7.05;3.13;;;;;;;23.96;37.15;100702.72;5110020;28;20051;-28
2022/10/24 10:04:35;;;;;;;6.05;2.83;;;;;;;23.86;36.82;100700.97;5109722;28;20423;-26
2022/10/24 10:07:12;;;;;;;8.18;3.35;;;;;;;24.02;36.25;100693.38;5091710;28;20035;-28
2022/10/24 10:09:45;;;;;;;8.18;3.42;;;;;;;23.86;36.26;100697.44;5110065;28;20031;-27
2022/10/24 10:12:30;;;;;;;7.47;3.30;;;;;;;24.30;35.81;100692.75;5109999;28;20095;-26
2022/10/24 10:14:56;;;;;;;7.55;3.42;;;;;;;24.72;36.53;100680.91;5110211;28;20039;-27
2022/10/24 10:17:25;;;;;;;7.50;3.28;;;;;;;24.83;34.87;100670.63;5090223;28;20487;-27
2022/10/24 10:19:52;;;;;;;9.13;3.40;;;;;;;24.72;35.03;100678.16;5110029;28;20082;-29
2022/10/24 10:22:26;;;;;;;6.00;3.28;;;;;;;25.02;34.53;100684.19;5109964;28;20062;-28
2022/10/24 10:24:52;;;;;;;9.20;3.28;;;;;;;25.19;34.12;100675.44;5109900;28;20097;-27
2022/10/24 10:27:26;;;;;;;9.32;3.55;;;;;;;25.54;33.02;100679.41;5110007;28;20027;-27
2022/10/24 10:30:12;;;;;;;7.10;3.30;;;;;;;25.72;32.68;100664.00;5109684;28;20427;-28
2022/10/24 10:33:16;;;;;;;7.88;3.50;;;;;;;25.85;33.08;100668.66;5109551;28;20175;-28
2022/10/24 10:36:03;;;;;;;6.05;3.05;;;;;;;26.15;31.42;100668.28;5063760;28;20092;-27
2022/10/24 10:38:44;;;;;;;7.78;3.33;;;;;;;25.97;32.67;100668.16;5109111;28;20027;-27
2022/10/24 10:41:24;;;;;;;6.20;3.38;;;;;;;26.09;32.28;100664.03;5109476;28;20106;-26
2022/10/24 10:43:58;;;;;;;5.65;3.45;;;;;;;26.26;32.49;100664.19;5109513;28;20032;-28
2022/10/24 10:46:43;;;;;;;7.15;3.00;;;;;;;26.37;32.39;100660.09;5108965;28;20051;-27
2022/10/24 10:49:19;;;;;;;6.70;3.17;;;;;;;26.77;31.84;100657.50;5109722;28;20036;-29
2022/10/24 10:52:17;;;;;;;7.32;3.47;;;;;;;26.76;32.21;100644.91;5109151;28;20461;-27
2022/10/24 10:55:10;;;;;;;7.28;3.05;;;;;;;26.72;31.78;100638.44;5108182;28;20082;-28
2022/10/24 10:57:43;;;;;;;6.85;3.42;;;;;;;27.10;31.04;100634.47;5109267;28;20027;-27
2022/10/24 11:00:51;;;;;;;6.35;3.47;;;;;;;27.04;31.34;100642.00;5108924;28;20028;-27
2022/10/24 11:03:39;;;;;;;5.75;3.00;;;;;;;27.27;31.35;100636.47;5089759;28;20039;-27
2022/10/24 11:06:21;;;;;;;6.90;2.78;;;;;;;27.24;30.97;100627.78;5109097;28;20044;-27
2022/10/24 11:09:17;;;;;;;6.60;3.65;;;;;;;27.29;31.06;100620.53;5109106;28;20093;-28
2022/10/24 11:11:49;;;;;;;5.95;2.65;;;;;;;26.51;31.50;100605.31;5108634;28;20490;-28
2022/10/24 11:14:25;;;;;;;9.75;3.42;;;;;;;27.11;31.18;100601.28;5108775;28;20019;-27
2022/10/24 11:16:53;;;;;;;5.85;2.65;;;;;;;27.12;32.40;100594.69;5108856;28;20415;-28
2022/10/24 11:19:59;;;;;;;6.72;3.00;;;;;;;27.34;31.24;100609.41;5090170;28;20847;-27
2022/10/24 11:22:31;;;;;;;12.27;3.50;;;;;;;28.13;29.80;100608.38;5107696;28;20043;-27
2022/10/24 11:25:04;;;;;;;6.35;2.80;;;;;;;27.34;31.23;100601.19;5108498;28;20093;-29
2022/10/24 11:27:43;;;;;;;5.57;2.63;;;;;;;27.91;29.24;100603.06;5108108;28;20028;-27
2022/10/24 11:30:19;;;;;;;6.90;2.75;;;;;;;28.23;29.40;100601.75;5089947;28;20064;-26
2022/10/24 11:32:51;;;;;;;5.50;2.90;;;;;;;28.69;29.30;100600.22;5109176;28;20059;-26